sensor_id;sensor_type;location;lat;lon;timestamp;P1;durP1;ratioP1;P2;durP2;ratioP2
49730;SDS011;35622;52.008;5.426;2022-09-09T00:04:55;6.75;;;2.25;;
49730;SDS011;35622;52.008;5.426;2022-09-09T00:07:48;2.83;;;1.67;;
49730;SDS011;35622;52.008;5.426;2022-09-09T00:10:33;3.80;;;2.00;;
49730;SDS011;35622;52.008;5.426;2022-09-09T00:16:09;3.10;;;2.00;;
49730;SDS011;35622;52.008;5.426;2022-09-09T00:21:35;4.57;;;2.60;;
49730;SDS011;35622;52.008;5.426;2022-09-09T00:27:23;6.22;;;3.17;;
49730;SDS011;35622;52.008;5.426;2022-09-09T00:29:56;4.93;;;3.00;;
49730;SDS011;35622;52.008;5.426;2022-09-09T00:32:30;5.13;;;3.15;;
49730;SDS011;35622;52.008;5.426;2022-09-09T00:34:59;5.88;;;3.10;;
49730;SDS011;35622;52.008;5.426;2022-09-09T00:37:28;6.25;;;3.10;;
49730;SDS011;35622;52.008;5.426;2022-09-09T00:39:57;4.82;;;2.83;;
49730;SDS011;35622;52.008;5.426;2022-09-09T00:42:26;4.63;;;2.97;;
49730;SDS011;35622;52.008;5.426;2022-09-09T00:47:46;4.75;;;3.63;;
49730;SDS011;35622;52.008;5.426;2022-09-09T00:55:44;4.93;;;3.50;;
49730;SDS011;35622;52.008;5.426;2022-09-09T00:58:13;7.03;;;3.80;;
49730;SDS011;35622;52.008;5.426;2022-09-09T01:14:33;6.32;;;4.53;;
49730;SDS011;35622;52.008;5.426;2022-09-09T01:19:59;6.70;;;4.38;;
49730;SDS011;35622;52.008;5.426;2022-09-09T01:28:08;5.13;;;3.95;;
49730;SDS011;35622;52.008;5.426;2022-09-09T01:30:37;7.15;;;4.95;;
49730;SDS011;35622;52.008;5.426;2022-09-09T01:33:05;6.13;;;4.57;;
49730;SDS011;35622;52.008;5.426;2022-09-09T01:35:40;5.90;;;4.40;;
49730;SDS011;35622;52.008;5.426;2022-09-09T01:38:22;4.97;;;4.47;;
49730;SDS011;35622;52.008;5.426;2022-09-09T01:40:48;6.32;;;3.97;;
49730;SDS011;35622;52.008;5.426;2022-09-09T01:43:17;9.77;;;4.10;;
49730;SDS011;35622;52.008;5.426;2022-09-09T01:45:44;5.28;;;4.78;;
49730;SDS011;35622;52.008;5.426;2022-09-09T01:48:13;8.60;;;4.80;;
49730;SDS011;35622;52.008;5.426;2022-09-09T01:50:39;8.73;;;4.75;;
49730;SDS011;35622;52.008;5.426;2022-09-09T01:53:05;6.15;;;4.00;;
49730;SDS011;35622;52.008;5.426;2022-09-09T01:55:37;6.93;;;4.65;;
49730;SDS011;35622;52.008;5.426;2022-09-09T02:00:50;6.07;;;4.88;;
49730;SDS011;35622;52.008;5.426;2022-09-09T02:03:49;5.55;;;4.28;;
49730;SDS011;35622;52.008;5.426;2022-09-09T02:06:25;6.22;;;4.13;;
49730;SDS011;35622;52.008;5.426;2022-09-09T02:08:52;5.18;;;3.92;;
49730;SDS011;35622;52.008;5.426;2022-09-09T02:11:25;5.80;;;4.18;;
49730;SDS011;35622;52.008;5.426;2022-09-09T02:13:53;6.25;;;4.57;;
49730;SDS011;35622;52.008;5.426;2022-09-09T02:16:24;5.82;;;4.07;;
49730;SDS011;35622;52.008;5.426;2022-09-09T02:19:23;8.10;;;4.45;;
49730;SDS011;35622;52.008;5.426;2022-09-09T02:21:56;8.25;;;5.07;;
49730;SDS011;35622;52.008;5.426;2022-09-09T02:24:24;7.32;;;4.07;;
49730;SDS011;35622;52.008;5.426;2022-09-09T02:26:52;7.70;;;5.75;;
49730;SDS011;35622;52.008;5.426;2022-09-09T02:29:24;8.23;;;4.80;;
49730;SDS011;35622;52.008;5.426;2022-09-09T02:31:53;7.35;;;4.97;;
49730;SDS011;35622;52.008;5.426;2022-09-09T02:34:22;6.70;;;4.75;;
49730;SDS011;35622;52.008;5.426;2022-09-09T02:36:49;7.47;;;5.28;;
49730;SDS011;35622;52.008;5.426;2022-09-09T02:39:18;7.68;;;5.13;;
49730;SDS011;35622;52.008;5.426;2022-09-09T02:41:44;7.70;;;5.40;;
49730;SDS011;35622;52.008;5.426;2022-09-09T02:44:11;8.70;;;5.80;;
49730;SDS011;35622;52.008;5.426;2022-09-09T02:52:08;7.93;;;5.80;;
49730;SDS011;35622;52.008;5.426;2022-09-09T02:54:41;7.53;;;6.60;;
49730;SDS011;35622;52.008;5.426;2022-09-09T02:57:19;6.72;;;5.80;;
49730;SDS011;35622;52.008;5.426;2022-09-09T02:59:52;6.35;;;5.43;;
49730;SDS011;35622;52.008;5.426;2022-09-09T03:02:21;7.40;;;5.53;;
49730;SDS011;35622;52.008;5.426;2022-09-09T03:04:47;8.05;;;5.60;;
49730;SDS011;35622;52.008;5.426;2022-09-09T03:07:16;7.88;;;6.70;;
49730;SDS011;35622;52.008;5.426;2022-09-09T03:09:42;6.63;;;5.28;;
49730;SDS011;35622;52.008;5.426;2022-09-09T03:12:08;8.27;;;6.70;;
49730;SDS011;35622;52.008;5.426;2022-09-09T03:14:35;9.68;;;7.53;;
49730;SDS011;35622;52.008;5.426;2022-09-09T03:17:00;8.13;;;6.93;;
49730;SDS011;35622;52.008;5.426;2022-09-09T03:19:27;10.20;;;6.90;;
49730;SDS011;35622;52.008;5.426;2022-09-09T03:21:53;7.88;;;6.32;;
49730;SDS011;35622;52.008;5.426;2022-09-09T03:24:19;7.13;;;6.25;;
49730;SDS011;35622;52.008;5.426;2022-09-09T03:26:44;8.40;;;6.38;;
49730;SDS011;35622;52.008;5.426;2022-09-09T03:29:11;9.13;;;5.78;;
49730;SDS011;35622;52.008;5.426;2022-09-09T03:31:37;8.20;;;6.18;;
49730;SDS011;35622;52.008;5.426;2022-09-09T03:34:03;7.13;;;5.55;;
49730;SDS011;35622;52.008;5.426;2022-09-09T03:36:29;9.77;;;6.45;;
49730;SDS011;35622;52.008;5.426;2022-09-09T03:38:55;10.13;;;7.00;;
49730;SDS011;35622;52.008;5.426;2022-09-09T03:41:21;8.85;;;7.10;;
49730;SDS011;35622;52.008;5.426;2022-09-09T03:43:49;8.40;;;6.57;;
49730;SDS011;35622;52.008;5.426;2022-09-09T03:46:16;10.00;;;6.65;;
49730;SDS011;35622;52.008;5.426;2022-09-09T03:48:42;9.05;;;6.78;;
49730;SDS011;35622;52.008;5.426;2022-09-09T03:51:07;13.20;;;6.95;;
49730;SDS011;35622;52.008;5.426;2022-09-09T03:53:33;8.30;;;6.20;;
49730;SDS011;35622;52.008;5.426;2022-09-09T03:55:59;10.65;;;6.13;;
49730;SDS011;35622;52.008;5.426;2022-09-09T03:58:25;7.78;;;6.97;;
49730;SDS011;35622;52.008;5.426;2022-09-09T04:00:53;10.77;;;6.30;;
49730;SDS011;35622;52.008;5.426;2022-09-09T04:03:23;9.88;;;6.93;;
49730;SDS011;35622;52.008;5.426;2022-09-09T04:05:50;11.82;;;6.80;;
49730;SDS011;35622;52.008;5.426;2022-09-09T04:08:17;8.77;;;6.95;;
49730;SDS011;35622;52.008;5.426;2022-09-09T04:10:44;11.27;;;7.35;;
49730;SDS011;35622;52.008;5.426;2022-09-09T04:13:11;12.52;;;7.30;;
49730;SDS011;35622;52.008;5.426;2022-09-09T04:15:39;11.30;;;6.90;;
49730;SDS011;35622;52.008;5.426;2022-09-09T04:18:04;10.32;;;7.28;;
49730;SDS011;35622;52.008;5.426;2022-09-09T04:20:31;9.63;;;6.68;;
49730;SDS011;35622;52.008;5.426;2022-09-09T04:22:57;8.80;;;7.03;;
49730;SDS011;35622;52.008;5.426;2022-09-09T04:25:23;8.55;;;6.57;;
49730;SDS011;35622;52.008;5.426;2022-09-09T04:27:53;9.32;;;6.65;;
49730;SDS011;35622;52.008;5.426;2022-09-09T04:30:22;8.80;;;6.50;;
49730;SDS011;35622;52.008;5.426;2022-09-09T04:32:48;7.90;;;6.55;;
49730;SDS011;35622;52.008;5.426;2022-09-09T04:35:14;10.23;;;6.43;;
49730;SDS011;35622;52.008;5.426;2022-09-09T04:37:39;8.32;;;6.53;;
49730;SDS011;35622;52.008;5.426;2022-09-09T04:40:05;10.52;;;6.05;;
49730;SDS011;35622;52.008;5.426;2022-09-09T04:42:35;9.38;;;6.30;;
49730;SDS011;35622;52.008;5.426;2022-09-09T04:45:01;7.88;;;5.90;;
49730;SDS011;35622;52.008;5.426;2022-09-09T04:47:27;7.30;;;5.72;;
49730;SDS011;35622;52.008;5.426;2022-09-09T04:49:53;8.18;;;5.25;;
49730;SDS011;35622;52.008;5.426;2022-09-09T04:52:19;9.13;;;5.97;;
49730;SDS011;35622;52.008;5.426;2022-09-09T04:54:45;7.97;;;5.78;;
49730;SDS011;35622;52.008;5.426;2022-09-09T04:57:11;12.18;;;5.88;;
49730;SDS011;35622;52.008;5.426;2022-09-09T04:59:37;8.55;;;5.78;;
49730;SDS011;35622;52.008;5.426;2022-09-09T05:02:04;8.05;;;6.28;;
49730;SDS011;35622;52.008;5.426;2022-09-09T05:04:30;10.48;;;6.28;;
49730;SDS011;35622;52.008;5.426;2022-09-09T05:06:56;8.57;;;6.40;;
49730;SDS011;35622;52.008;5.426;2022-09-09T05:09:21;7.75;;;6.32;;
49730;SDS011;35622;52.008;5.426;2022-09-09T05:11:47;11.05;;;5.72;;
49730;SDS011;35622;52.008;5.426;2022-09-09T05:14:13;9.13;;;5.70;;
49730;SDS011;35622;52.008;5.426;2022-09-09T05:16:39;10.48;;;5.93;;
49730;SDS011;35622;52.008;5.426;2022-09-09T05:19:05;7.78;;;6.00;;
49730;SDS011;35622;52.008;5.426;2022-09-09T05:21:33;8.95;;;5.88;;
49730;SDS011;35622;52.008;5.426;2022-09-09T05:23:59;8.32;;;5.68;;
49730;SDS011;35622;52.008;5.426;2022-09-09T05:26:25;10.73;;;6.25;;
49730;SDS011;35622;52.008;5.426;2022-09-09T05:28:51;11.35;;;6.05;;
49730;SDS011;35622;52.008;5.426;2022-09-09T05:31:17;9.45;;;6.30;;
49730;SDS011;35622;52.008;5.426;2022-09-09T05:33:44;9.40;;;6.20;;
49730;SDS011;35622;52.008;5.426;2022-09-09T05:36:11;9.50;;;5.63;;
49730;SDS011;35622;52.008;5.426;2022-09-09T05:38:39;8.20;;;5.78;;
49730;SDS011;35622;52.008;5.426;2022-09-09T05:41:05;7.25;;;5.50;;
49730;SDS011;35622;52.008;5.426;2022-09-09T05:43:32;10.93;;;5.45;;
49730;SDS011;35622;52.008;5.426;2022-09-09T05:46:02;9.85;;;5.35;;
49730;SDS011;35622;52.008;5.426;2022-09-09T05:48:33;8.10;;;5.20;;
49730;SDS011;35622;52.008;5.426;2022-09-09T05:51:00;8.77;;;5.30;;
49730;SDS011;35622;52.008;5.426;2022-09-09T05:53:27;9.98;;;5.47;;
49730;SDS011;35622;52.008;5.426;2022-09-09T05:56:03;8.98;;;4.90;;
49730;SDS011;35622;52.008;5.426;2022-09-09T05:58:34;8.95;;;5.28;;
49730;SDS011;35622;52.008;5.426;2022-09-09T06:01:03;7.38;;;4.35;;
49730;SDS011;35622;52.008;5.426;2022-09-09T06:03:40;11.43;;;4.55;;
49730;SDS011;35622;52.008;5.426;2022-09-09T06:06:07;8.20;;;4.50;;
49730;SDS011;35622;52.008;5.426;2022-09-09T06:08:35;11.10;;;4.25;;
49730;SDS011;35622;52.008;5.426;2022-09-09T06:11:09;8.82;;;3.92;;
49730;SDS011;35622;52.008;5.426;2022-09-09T06:13:36;10.48;;;3.60;;
49730;SDS011;35622;52.008;5.426;2022-09-09T06:16:05;6.32;;;3.80;;
49730;SDS011;35622;52.008;5.426;2022-09-09T06:18:33;8.48;;;3.50;;
49730;SDS011;35622;52.008;5.426;2022-09-09T06:21:02;7.18;;;3.05;;
49730;SDS011;35622;52.008;5.426;2022-09-09T06:23:31;6.88;;;3.10;;
49730;SDS011;35622;52.008;5.426;2022-09-09T06:26:04;6.22;;;3.10;;
49730;SDS011;35622;52.008;5.426;2022-09-09T06:28:31;9.65;;;3.30;;
49730;SDS011;35622;52.008;5.426;2022-09-09T06:30:58;6.57;;;2.55;;
49730;SDS011;35622;52.008;5.426;2022-09-09T06:33:24;5.78;;;2.65;;
49730;SDS011;35622;52.008;5.426;2022-09-09T06:35:53;7.28;;;2.45;;
49730;SDS011;35622;52.008;5.426;2022-09-09T06:38:20;5.45;;;2.22;;
49730;SDS011;35622;52.008;5.426;2022-09-09T06:40:56;5.45;;;1.80;;
49730;SDS011;35622;52.008;5.426;2022-09-09T06:43:23;5.40;;;2.00;;
49730;SDS011;35622;52.008;5.426;2022-09-09T06:45:59;5.43;;;1.60;;
49730;SDS011;35622;52.008;5.426;2022-09-09T06:48:56;6.50;;;1.80;;
49730;SDS011;35622;52.008;5.426;2022-09-09T06:51:24;5.47;;;1.60;;
49730;SDS011;35622;52.008;5.426;2022-09-09T06:53:52;4.57;;;2.08;;
49730;SDS011;35622;52.008;5.426;2022-09-09T06:58:53;5.43;;;1.70;;
49730;SDS011;35622;52.008;5.426;2022-09-09T07:01:21;5.95;;;1.73;;
49730;SDS011;35622;52.008;5.426;2022-09-09T07:03:51;5.60;;;1.73;;
49730;SDS011;35622;52.008;5.426;2022-09-09T07:06:23;9.38;;;2.00;;
49730;SDS011;35622;52.008;5.426;2022-09-09T07:09:00;5.00;;;1.50;;
49730;SDS011;35622;52.008;5.426;2022-09-09T07:11:31;7.20;;;1.73;;
49730;SDS011;35622;52.008;5.426;2022-09-09T07:13:59;5.32;;;1.67;;
49730;SDS011;35622;52.008;5.426;2022-09-09T07:16:26;3.83;;;1.48;;
49730;SDS011;35622;52.008;5.426;2022-09-09T07:18:52;6.53;;;1.77;;
49730;SDS011;35622;52.008;5.426;2022-09-09T07:21:22;6.15;;;1.70;;
49730;SDS011;35622;52.008;5.426;2022-09-09T07:23:49;8.05;;;1.90;;
49730;SDS011;35622;52.008;5.426;2022-09-09T07:26:16;6.45;;;1.77;;
49730;SDS011;35622;52.008;5.426;2022-09-09T07:28:44;9.23;;;2.13;;
49730;SDS011;35622;52.008;5.426;2022-09-09T07:31:13;6.57;;;1.98;;
49730;SDS011;35622;52.008;5.426;2022-09-09T07:33:47;5.22;;;2.00;;
49730;SDS011;35622;52.008;5.426;2022-09-09T07:36:14;6.78;;;1.92;;
49730;SDS011;35622;52.008;5.426;2022-09-09T07:38:48;6.80;;;2.30;;
49730;SDS011;35622;52.008;5.426;2022-09-09T07:41:20;8.00;;;2.15;;
49730;SDS011;35622;52.008;5.426;2022-09-09T07:43:50;5.38;;;1.67;;
49730;SDS011;35622;52.008;5.426;2022-09-09T07:46:19;7.90;;;1.50;;
49730;SDS011;35622;52.008;5.426;2022-09-09T07:48:46;5.22;;;1.25;;
49730;SDS011;35622;52.008;5.426;2022-09-09T07:51:17;4.97;;;1.40;;
49730;SDS011;35622;52.008;5.426;2022-09-09T07:53:45;6.70;;;1.77;;
49730;SDS011;35622;52.008;5.426;2022-09-09T07:56:12;6.57;;;2.10;;
49730;SDS011;35622;52.008;5.426;2022-09-09T07:58:41;6.53;;;1.60;;
49730;SDS011;35622;52.008;5.426;2022-09-09T08:01:10;7.07;;;1.88;;
49730;SDS011;35622;52.008;5.426;2022-09-09T08:03:44;5.50;;;1.58;;
49730;SDS011;35622;52.008;5.426;2022-09-09T08:06:11;5.82;;;1.90;;
49730;SDS011;35622;52.008;5.426;2022-09-09T08:08:37;7.53;;;1.83;;
49730;SDS011;35622;52.008;5.426;2022-09-09T08:11:07;7.88;;;2.28;;
49730;SDS011;35622;52.008;5.426;2022-09-09T08:13:41;11.10;;;2.88;;
49730;SDS011;35622;52.008;5.426;2022-09-09T08:16:12;7.07;;;2.47;;
49730;SDS011;35622;52.008;5.426;2022-09-09T08:18:40;7.35;;;1.95;;
49730;SDS011;35622;52.008;5.426;2022-09-09T08:21:07;10.75;;;2.30;;
49730;SDS011;35622;52.008;5.426;2022-09-09T08:23:36;7.78;;;2.05;;
49730;SDS011;35622;52.008;5.426;2022-09-09T08:26:04;7.90;;;2.00;;
49730;SDS011;35622;52.008;5.426;2022-09-09T08:28:31;7.82;;;2.20;;
49730;SDS011;35622;52.008;5.426;2022-09-09T08:31:04;6.97;;;2.40;;
49730;SDS011;35622;52.008;5.426;2022-09-09T08:33:41;8.77;;;2.05;;
49730;SDS011;35622;52.008;5.426;2022-09-09T08:36:11;6.95;;;2.50;;
49730;SDS011;35622;52.008;5.426;2022-09-09T08:38:42;8.90;;;2.00;;
49730;SDS011;35622;52.008;5.426;2022-09-09T08:43:49;7.25;;;2.20;;
49730;SDS011;35622;52.008;5.426;2022-09-09T08:46:29;7.82;;;2.03;;
49730;SDS011;35622;52.008;5.426;2022-09-09T08:51:43;7.78;;;2.17;;
49730;SDS011;35622;52.008;5.426;2022-09-09T08:54:09;11.50;;;2.67;;
49730;SDS011;35622;52.008;5.426;2022-09-09T08:56:35;7.78;;;2.30;;
49730;SDS011;35622;52.008;5.426;2022-09-09T08:59:01;5.78;;;2.08;;
49730;SDS011;35622;52.008;5.426;2022-09-09T09:07:11;8.43;;;2.10;;
49730;SDS011;35622;52.008;5.426;2022-09-09T09:10:04;4.20;;;1.83;;
49730;SDS011;35622;52.008;5.426;2022-09-09T09:12:43;6.85;;;2.20;;
49730;SDS011;35622;52.008;5.426;2022-09-09T09:15:55;7.95;;;2.20;;
49730;SDS011;35622;52.008;5.426;2022-09-09T09:18:03;9.23;;;2.35;;
49730;SDS011;35622;52.008;5.426;2022-09-09T09:20:37;9.80;;;2.80;;
49730;SDS011;35622;52.008;5.426;2022-09-09T09:23:10;7.28;;;2.20;;
49730;SDS011;35622;52.008;5.426;2022-09-09T09:25:44;9.65;;;2.03;;
49730;SDS011;35622;52.008;5.426;2022-09-09T09:28:15;8.82;;;2.30;;
49730;SDS011;35622;52.008;5.426;2022-09-09T09:30:44;6.55;;;2.00;;
49730;SDS011;35622;52.008;5.426;2022-09-09T09:36:00;8.27;;;1.83;;
49730;SDS011;35622;52.008;5.426;2022-09-09T09:38:27;7.65;;;2.10;;
49730;SDS011;35622;52.008;5.426;2022-09-09T09:40:54;8.85;;;2.15;;
49730;SDS011;35622;52.008;5.426;2022-09-09T09:45:56;5.50;;;2.17;;
49730;SDS011;35622;52.008;5.426;2022-09-09T09:48:25;7.25;;;2.13;;
49730;SDS011;35622;52.008;5.426;2022-09-09T09:50:56;5.63;;;2.05;;
49730;SDS011;35622;52.008;5.426;2022-09-09T09:53:33;10.10;;;2.22;;
49730;SDS011;35622;52.008;5.426;2022-09-09T09:58:27;5.07;;;2.13;;
49730;SDS011;35622;52.008;5.426;2022-09-09T10:00:58;6.95;;;2.20;;
49730;SDS011;35622;52.008;5.426;2022-09-09T10:05:52;6.57;;;1.88;;
49730;SDS011;35622;52.008;5.426;2022-09-09T10:08:19;8.07;;;1.90;;
49730;SDS011;35622;52.008;5.426;2022-09-09T10:11:02;7.80;;;1.90;;
49730;SDS011;35622;52.008;5.426;2022-09-09T10:19:31;8.25;;;2.00;;
49730;SDS011;35622;52.008;5.426;2022-09-09T10:22:04;7.22;;;1.98;;
49730;SDS011;35622;52.008;5.426;2022-09-09T10:27:04;8.43;;;2.00;;
49730;SDS011;35622;52.008;5.426;2022-09-09T10:34:57;5.03;;;1.88;;
49730;SDS011;35622;52.008;5.426;2022-09-09T10:42:46;8.18;;;2.60;;
49730;SDS011;35622;52.008;5.426;2022-09-09T10:45:18;7.72;;;2.40;;
49730;SDS011;35622;52.008;5.426;2022-09-09T10:53:24;5.57;;;2.08;;
49730;SDS011;35622;52.008;5.426;2022-09-09T10:55:56;8.30;;;2.65;;
49730;SDS011;35622;52.008;5.426;2022-09-09T10:58:29;6.15;;;1.80;;
49730;SDS011;35622;52.008;5.426;2022-09-09T11:01:02;5.25;;;2.22;;
49730;SDS011;35622;52.008;5.426;2022-09-09T11:03:49;6.95;;;2.00;;
49730;SDS011;35622;52.008;5.426;2022-09-09T11:06:21;7.85;;;2.00;;
49730;SDS011;35622;52.008;5.426;2022-09-09T11:08:53;6.55;;;2.05;;
49730;SDS011;35622;52.008;5.426;2022-09-09T11:11:37;7.07;;;2.10;;
49730;SDS011;35622;52.008;5.426;2022-09-09T11:14:26;4.70;;;1.98;;
49730;SDS011;35622;52.008;5.426;2022-09-09T11:17:26;6.75;;;2.00;;
49730;SDS011;35622;52.008;5.426;2022-09-09T11:20:01;3.72;;;1.60;;
49730;SDS011;35622;52.008;5.426;2022-09-09T11:22:31;5.40;;;1.80;;
49730;SDS011;35622;52.008;5.426;2022-09-09T11:25:08;4.45;;;1.48;;
49730;SDS011;35622;52.008;5.426;2022-09-09T11:27:58;5.00;;;1.50;;
49730;SDS011;35622;52.008;5.426;2022-09-09T11:42:07;4.88;;;1.55;;
49730;SDS011;35622;52.008;5.426;2022-09-09T11:44:38;5.78;;;2.03;;
49730;SDS011;35622;52.008;5.426;2022-09-09T11:47:16;6.25;;;1.95;;
49730;SDS011;35622;52.008;5.426;2022-09-09T11:49:49;4.63;;;1.70;;
49730;SDS011;35622;52.008;5.426;2022-09-09T11:52:22;3.25;;;1.60;;
49730;SDS011;35622;52.008;5.426;2022-09-09T11:54:50;6.82;;;1.92;;
49730;SDS011;35622;52.008;5.426;2022-09-09T11:57:26;6.03;;;1.80;;
49730;SDS011;35622;52.008;5.426;2022-09-09T11:59:58;7.15;;;2.15;;
49730;SDS011;35622;52.008;5.426;2022-09-09T12:02:26;6.10;;;2.00;;
49730;SDS011;35622;52.008;5.426;2022-09-09T12:05:04;5.78;;;1.92;;
49730;SDS011;35622;52.008;5.426;2022-09-09T12:07:38;4.80;;;2.33;;
49730;SDS011;35622;52.008;5.426;2022-09-09T12:10:22;6.22;;;2.40;;
49730;SDS011;35622;52.008;5.426;2022-09-09T12:15:48;6.50;;;3.00;;
49730;SDS011;35622;52.008;5.426;2022-09-09T12:18:21;6.43;;;3.03;;
49730;SDS011;35622;52.008;5.426;2022-09-09T12:20:54;7.70;;;3.00;;
49730;SDS011;35622;52.008;5.426;2022-09-09T12:23:34;5.75;;;2.70;;
49730;SDS011;35622;52.008;5.426;2022-09-09T12:26:20;7.55;;;2.95;;
49730;SDS011;35622;52.008;5.426;2022-09-09T12:31:35;5.82;;;2.58;;
49730;SDS011;35622;52.008;5.426;2022-09-09T12:34:26;5.97;;;2.13;;
49730;SDS011;35622;52.008;5.426;2022-09-09T12:37:03;4.38;;;1.80;;
49730;SDS011;35622;52.008;5.426;2022-09-09T12:39:50;3.78;;;1.92;;
49730;SDS011;35622;52.008;5.426;2022-09-09T12:42:20;5.40;;;2.08;;
49730;SDS011;35622;52.008;5.426;2022-09-09T12:44:53;5.45;;;2.00;;
49730;SDS011;35622;52.008;5.426;2022-09-09T12:47:29;4.95;;;2.15;;
49730;SDS011;35622;52.008;5.426;2022-09-09T12:50:14;6.35;;;1.83;;
49730;SDS011;35622;52.008;5.426;2022-09-09T12:52:42;5.22;;;2.10;;
49730;SDS011;35622;52.008;5.426;2022-09-09T12:55:15;4.22;;;1.77;;
49730;SDS011;35622;52.008;5.426;2022-09-09T12:57:44;4.93;;;2.10;;
49730;SDS011;35622;52.008;5.426;2022-09-09T13:02:47;7.13;;;2.10;;
49730;SDS011;35622;52.008;5.426;2022-09-09T13:05:23;5.43;;;2.20;;
49730;SDS011;35622;52.008;5.426;2022-09-09T13:07:50;5.43;;;2.13;;
49730;SDS011;35622;52.008;5.426;2022-09-09T13:10:26;4.28;;;2.00;;
49730;SDS011;35622;52.008;5.426;2022-09-09T13:12:54;5.70;;;2.17;;
49730;SDS011;35622;52.008;5.426;2022-09-09T13:15:21;4.72;;;2.00;;
49730;SDS011;35622;52.008;5.426;2022-09-09T13:17:50;5.72;;;2.33;;
49730;SDS011;35622;52.008;5.426;2022-09-09T13:20:17;5.32;;;2.40;;
49730;SDS011;35622;52.008;5.426;2022-09-09T13:22:44;7.03;;;2.42;;
49730;SDS011;35622;52.008;5.426;2022-09-09T13:27:37;5.22;;;2.42;;
49730;SDS011;35622;52.008;5.426;2022-09-09T13:30:21;5.13;;;2.50;;
49730;SDS011;35622;52.008;5.426;2022-09-09T13:35:53;2.75;;;1.90;;
49730;SDS011;35622;52.008;5.426;2022-09-09T13:38:24;4.72;;;2.13;;
49730;SDS011;35622;52.008;5.426;2022-09-09T13:40:53;6.07;;;2.17;;
49730;SDS011;35622;52.008;5.426;2022-09-09T13:43:23;6.28;;;2.08;;
49730;SDS011;35622;52.008;5.426;2022-09-09T13:45:57;4.60;;;2.00;;
49730;SDS011;35622;52.008;5.426;2022-09-09T13:48:26;6.03;;;2.20;;
49730;SDS011;35622;52.008;5.426;2022-09-09T13:50:59;8.23;;;2.28;;
49730;SDS011;35622;52.008;5.426;2022-09-09T13:53:28;5.70;;;2.20;;
49730;SDS011;35622;52.008;5.426;2022-09-09T13:55:53;5.20;;;2.22;;
49730;SDS011;35622;52.008;5.426;2022-09-09T13:58:19;4.50;;;2.20;;
49730;SDS011;35622;52.008;5.426;2022-09-09T14:00:46;7.20;;;2.30;;
49730;SDS011;35622;52.008;5.426;2022-09-09T14:03:12;4.35;;;2.20;;
49730;SDS011;35622;52.008;5.426;2022-09-09T14:05:38;6.47;;;2.35;;
49730;SDS011;35622;52.008;5.426;2022-09-09T14:08:04;3.97;;;2.15;;
49730;SDS011;35622;52.008;5.426;2022-09-09T14:10:32;4.88;;;2.15;;
49730;SDS011;35622;52.008;5.426;2022-09-09T14:13:01;5.43;;;2.15;;
49730;SDS011;35622;52.008;5.426;2022-09-09T14:15:27;7.03;;;1.90;;
49730;SDS011;35622;52.008;5.426;2022-09-09T14:17:53;6.20;;;2.17;;
49730;SDS011;35622;52.008;5.426;2022-09-09T14:20:20;6.78;;;1.88;;
49730;SDS011;35622;52.008;5.426;2022-09-09T14:22:46;5.45;;;1.95;;
49730;SDS011;35622;52.008;5.426;2022-09-09T14:25:11;4.85;;;1.77;;
49730;SDS011;35622;52.008;5.426;2022-09-09T14:27:40;4.45;;;2.00;;
49730;SDS011;35622;52.008;5.426;2022-09-09T14:30:07;7.00;;;2.28;;
49730;SDS011;35622;52.008;5.426;2022-09-09T14:32:33;5.53;;;2.00;;
49730;SDS011;35622;52.008;5.426;2022-09-09T14:34:59;6.18;;;2.60;;
49730;SDS011;35622;52.008;5.426;2022-09-09T14:37:24;6.35;;;2.20;;
49730;SDS011;35622;52.008;5.426;2022-09-09T14:39:51;4.30;;;2.00;;
49730;SDS011;35622;52.008;5.426;2022-09-09T14:42:18;6.13;;;2.20;;
49730;SDS011;35622;52.008;5.426;2022-09-09T14:44:44;3.30;;;1.80;;
49730;SDS011;35622;52.008;5.426;2022-09-09T14:47:10;4.93;;;1.80;;
49730;SDS011;35622;52.008;5.426;2022-09-09T14:49:35;5.22;;;1.75;;
49730;SDS011;35622;52.008;5.426;2022-09-09T14:52:02;3.85;;;1.85;;
49730;SDS011;35622;52.008;5.426;2022-09-09T14:54:28;4.15;;;1.70;;
49730;SDS011;35622;52.008;5.426;2022-09-09T14:56:54;5.50;;;1.73;;
49730;SDS011;35622;52.008;5.426;2022-09-09T14:59:19;4.95;;;1.85;;
49730;SDS011;35622;52.008;5.426;2022-09-09T15:01:45;2.45;;;1.50;;
49730;SDS011;35622;52.008;5.426;2022-09-09T15:04:11;3.65;;;1.70;;
49730;SDS011;35622;52.008;5.426;2022-09-09T15:06:39;2.60;;;1.30;;
49730;SDS011;35622;52.008;5.426;2022-09-09T15:09:07;3.22;;;1.33;;
49730;SDS011;35622;52.008;5.426;2022-09-09T15:11:33;2.47;;;1.30;;
49730;SDS011;35622;52.008;5.426;2022-09-09T15:14:02;3.95;;;1.20;;
49730;SDS011;35622;52.008;5.426;2022-09-09T15:16:29;3.30;;;1.30;;
49730;SDS011;35622;52.008;5.426;2022-09-09T15:18:57;2.97;;;1.10;;
49730;SDS011;35622;52.008;5.426;2022-09-09T15:21:24;3.95;;;1.10;;
49730;SDS011;35622;52.008;5.426;2022-09-09T15:23:51;6.65;;;1.30;;
49730;SDS011;35622;52.008;5.426;2022-09-09T15:26:17;3.03;;;1.33;;
49730;SDS011;35622;52.008;5.426;2022-09-09T15:28:44;2.78;;;1.55;;
49730;SDS011;35622;52.008;5.426;2022-09-09T15:31:15;2.78;;;1.00;;
49730;SDS011;35622;52.008;5.426;2022-09-09T15:33:46;3.58;;;0.90;;
49730;SDS011;35622;52.008;5.426;2022-09-09T15:38:43;1.35;;;0.90;;
49730;SDS011;35622;52.008;5.426;2022-09-09T15:41:10;3.97;;;1.30;;
49730;SDS011;35622;52.008;5.426;2022-09-09T15:43:36;2.35;;;1.08;;
49730;SDS011;35622;52.008;5.426;2022-09-09T15:48:51;3.78;;;1.02;;
49730;SDS011;35622;52.008;5.426;2022-09-09T15:51:19;3.53;;;1.10;;
49730;SDS011;35622;52.008;5.426;2022-09-09T15:53:45;3.03;;;0.75;;
49730;SDS011;35622;52.008;5.426;2022-09-09T15:56:11;2.80;;;1.10;;
49730;SDS011;35622;52.008;5.426;2022-09-09T15:58:36;3.97;;;1.00;;
49730;SDS011;35622;52.008;5.426;2022-09-09T16:01:05;2.75;;;1.00;;
49730;SDS011;35622;52.008;5.426;2022-09-09T16:03:39;3.20;;;1.15;;
49730;SDS011;35622;52.008;5.426;2022-09-09T16:06:11;3.40;;;1.20;;
49730;SDS011;35622;52.008;5.426;2022-09-09T16:08:42;2.03;;;1.05;;
49730;SDS011;35622;52.008;5.426;2022-09-09T16:11:11;4.72;;;1.65;;
49730;SDS011;35622;52.008;5.426;2022-09-09T16:13:40;3.17;;;1.60;;
49730;SDS011;35622;52.008;5.426;2022-09-09T16:16:09;1.98;;;1.10;;
49730;SDS011;35622;52.008;5.426;2022-09-09T16:18:37;3.65;;;1.10;;
49730;SDS011;35622;52.008;5.426;2022-09-09T16:21:17;3.88;;;1.30;;
49730;SDS011;35622;52.008;5.426;2022-09-09T16:23:45;2.95;;;1.15;;
49730;SDS011;35622;52.008;5.426;2022-09-09T16:26:11;4.50;;;1.10;;
49730;SDS011;35622;52.008;5.426;2022-09-09T16:28:38;3.70;;;1.48;;
49730;SDS011;35622;52.008;5.426;2022-09-09T16:31:08;3.63;;;1.27;;
49730;SDS011;35622;52.008;5.426;2022-09-09T16:33:36;3.33;;;1.33;;
49730;SDS011;35622;52.008;5.426;2022-09-09T16:36:06;2.67;;;1.50;;
49730;SDS011;35622;52.008;5.426;2022-09-09T16:38:33;3.42;;;1.20;;
49730;SDS011;35622;52.008;5.426;2022-09-09T16:41:00;3.35;;;1.45;;
49730;SDS011;35622;52.008;5.426;2022-09-09T16:43:26;4.45;;;1.20;;
49730;SDS011;35622;52.008;5.426;2022-09-09T16:45:52;3.30;;;1.35;;
49730;SDS011;35622;52.008;5.426;2022-09-09T16:48:17;3.22;;;1.27;;
49730;SDS011;35622;52.008;5.426;2022-09-09T16:50:43;4.32;;;1.30;;
49730;SDS011;35622;52.008;5.426;2022-09-09T16:53:09;3.15;;;1.45;;
49730;SDS011;35622;52.008;5.426;2022-09-09T16:55:39;3.15;;;1.40;;
49730;SDS011;35622;52.008;5.426;2022-09-09T16:58:07;2.40;;;1.65;;
49730;SDS011;35622;52.008;5.426;2022-09-09T17:00:35;3.17;;;1.55;;
49730;SDS011;35622;52.008;5.426;2022-09-09T17:03:00;5.53;;;2.13;;
49730;SDS011;35622;52.008;5.426;2022-09-09T17:05:27;3.22;;;1.65;;
49730;SDS011;35622;52.008;5.426;2022-09-09T17:07:53;4.97;;;1.95;;
49730;SDS011;35622;52.008;5.426;2022-09-09T17:10:20;3.55;;;1.83;;
49730;SDS011;35622;52.008;5.426;2022-09-09T17:12:46;6.00;;;2.10;;